sensor_id;sensor_type;location;lat;lon;timestamp;temperature;humidity
16686;DHT22;8456;51.136;4.210;2022-07-22T00:00:01;16.60;99.90
16686;DHT22;8456;51.136;4.210;2022-07-22T00:02:26;16.60;99.90
16686;DHT22;8456;51.136;4.210;2022-07-22T00:04:52;16.50;99.90
16686;DHT22;8456;51.136;4.210;2022-07-22T00:07:18;16.40;99.90
16686;DHT22;8456;51.136;4.210;2022-07-22T00:09:44;16.30;99.90
16686;DHT22;8456;51.136;4.210;2022-07-22T00:12:09;16.30;99.90
16686;DHT22;8456;51.136;4.210;2022-07-22T00:14:35;16.20;99.90
16686;DHT22;8456;51.136;4.210;2022-07-22T00:17:01;16.20;99.90
16686;DHT22;8456;51.136;4.210;2022-07-22T00:19:27;16.10;99.90
16686;DHT22;8456;51.136;4.210;2022-07-22T00:21:52;16.10;99.90
16686;DHT22;8456;51.136;4.210;2022-07-22T00:24:18;16.00;99.90
16686;DHT22;8456;51.136;4.210;2022-07-22T00:26:44;16.00;99.90
16686;DHT22;8456;51.136;4.210;2022-07-22T00:29:10;16.00;99.90
16686;DHT22;8456;51.136;4.210;2022-07-22T00:31:36;16.00;99.90
16686;DHT22;8456;51.136;4.210;2022-07-22T00:34:03;15.90;99.90
16686;DHT22;8456;51.136;4.210;2022-07-22T00:36:30;15.90;99.90
16686;DHT22;8456;51.136;4.210;2022-07-22T00:38:56;15.90;99.90
16686;DHT22;8456;51.136;4.210;2022-07-22T00:41:22;15.90;99.90
16686;DHT22;8456;51.136;4.210;2022-07-22T00:46:15;15.80;99.90
16686;DHT22;8456;51.136;4.210;2022-07-22T00:48:41;15.80;99.90
16686;DHT22;8456;51.136;4.210;2022-07-22T00:51:06;15.80;99.90
16686;DHT22;8456;51.136;4.210;2022-07-22T00:53:32;15.80;99.90
16686;DHT22;8456;51.136;4.210;2022-07-22T00:55:58;15.80;99.90
16686;DHT22;8456;51.136;4.210;2022-07-22T00:58:24;15.70;99.90
16686;DHT22;8456;51.136;4.210;2022-07-22T01:00:50;15.60;99.90
16686;DHT22;8456;51.136;4.210;2022-07-22T01:03:16;15.60;99.90
16686;DHT22;8456;51.136;4.210;2022-07-22T01:05:42;15.60;99.90
16686;DHT22;8456;51.136;4.210;2022-07-22T01:08:08;15.60;99.90
16686;DHT22;8456;51.136;4.210;2022-07-22T01:10:34;15.60;99.90
16686;DHT22;8456;51.136;4.210;2022-07-22T01:13:00;15.60;99.90
16686;DHT22;8456;51.136;4.210;2022-07-22T01:15:26;15.60;99.90
16686;DHT22;8456;51.136;4.210;2022-07-22T01:17:52;15.60;99.90
16686;DHT22;8456;51.136;4.210;2022-07-22T01:20:17;15.60;99.90
16686;DHT22;8456;51.136;4.210;2022-07-22T01:22:43;15.50;99.90
16686;DHT22;8456;51.136;4.210;2022-07-22T01:25:11;15.40;99.90
16686;DHT22;8456;51.136;4.210;2022-07-22T01:27:38;15.40;99.90
16686;DHT22;8456;51.136;4.210;2022-07-22T01:30:05;15.40;99.90
16686;DHT22;8456;51.136;4.210;2022-07-22T01:32:31;15.40;99.90
16686;DHT22;8456;51.136;4.210;2022-07-22T01:34:57;15.30;99.90
16686;DHT22;8456;51.136;4.210;2022-07-22T01:37:23;15.20;99.90
16686;DHT22;8456;51.136;4.210;2022-07-22T01:39:49;15.20;99.90
16686;DHT22;8456;51.136;4.210;2022-07-22T01:42:15;15.20;99.90
16686;DHT22;8456;51.136;4.210;2022-07-22T01:44:42;15.20;99.90
16686;DHT22;8456;51.136;4.210;2022-07-22T01:47:09;15.10;99.90
16686;DHT22;8456;51.136;4.210;2022-07-22T01:49:35;15.10;99.90
16686;DHT22;8456;51.136;4.210;2022-07-22T01:52:02;15.10;99.90
16686;DHT22;8456;51.136;4.210;2022-07-22T01:54:29;15.10;99.90
16686;DHT22;8456;51.136;4.210;2022-07-22T01:56:56;15.10;99.90
16686;DHT22;8456;51.136;4.210;2022-07-22T01:59:22;15.10;99.90
16686;DHT22;8456;51.136;4.210;2022-07-22T02:01:47;15.10;99.90
16686;DHT22;8456;51.136;4.210;2022-07-22T02:04:13;15.10;99.90
16686;DHT22;8456;51.136;4.210;2022-07-22T02:06:41;15.10;99.90
16686;DHT22;8456;51.136;4.210;2022-07-22T02:09:08;15.00;99.90
16686;DHT22;8456;51.136;4.210;2022-07-22T02:11:41;15.00;99.90
16686;DHT22;8456;51.136;4.210;2022-07-22T02:14:07;14.90;99.90
16686;DHT22;8456;51.136;4.210;2022-07-22T02:16:33;14.90;99.90
16686;DHT22;8456;51.136;4.210;2022-07-22T02:18:59;14.90;99.90
16686;DHT22;8456;51.136;4.210;2022-07-22T02:21:25;14.80;99.90
16686;DHT22;8456;51.136;4.210;2022-07-22T02:23:56;14.90;99.90
16686;DHT22;8456;51.136;4.210;2022-07-22T02:26:22;14.80;99.90
16686;DHT22;8456;51.136;4.210;2022-07-22T02:28:48;14.90;99.90
16686;DHT22;8456;51.136;4.210;2022-07-22T02:31:14;14.90;99.90
16686;DHT22;8456;51.136;4.210;2022-07-22T02:33:40;14.90;99.90
16686;DHT22;8456;51.136;4.210;2022-07-22T02:36:06;14.90;99.90
16686;DHT22;8456;51.136;4.210;2022-07-22T02:38:33;14.90;99.90
16686;DHT22;8456;51.136;4.210;2022-07-22T02:40:59;14.90;99.90
16686;DHT22;8456;51.136;4.210;2022-07-22T02:43:25;14.90;99.90
16686;DHT22;8456;51.136;4.210;2022-07-22T02:45:52;14.80;99.90
16686;DHT22;8456;51.136;4.210;2022-07-22T02:48:18;14.80;99.90
16686;DHT22;8456;51.136;4.210;2022-07-22T02:50:46;14.80;99.90
16686;DHT22;8456;51.136;4.210;2022-07-22T02:53:15;14.80;99.90
16686;DHT22;8456;51.136;4.210;2022-07-22T02:55:41;14.70;99.90
16686;DHT22;8456;51.136;4.210;2022-07-22T02:58:09;14.70;99.90
16686;DHT22;8456;51.136;4.210;2022-07-22T03:00:37;14.70;99.90
16686;DHT22;8456;51.136;4.210;2022-07-22T03:03:06;14.70;99.90
16686;DHT22;8456;51.136;4.210;2022-07-22T03:05:33;14.60;99.90
16686;DHT22;8456;51.136;4.210;2022-07-22T03:08:16;14.60;99.90
16686;DHT22;8456;51.136;4.210;2022-07-22T03:10:44;14.60;99.90
16686;DHT22;8456;51.136;4.210;2022-07-22T03:13:11;14.60;99.90
16686;DHT22;8456;51.136;4.210;2022-07-22T03:15:36;14.70;99.90
16686;DHT22;8456;51.136;4.210;2022-07-22T03:18:02;14.60;99.90
16686;DHT22;8456;51.136;4.210;2022-07-22T03:20:28;14.60;99.90
16686;DHT22;8456;51.136;4.210;2022-07-22T03:22:54;14.60;99.90
16686;DHT22;8456;51.136;4.210;2022-07-22T03:25:21;14.50;99.90
16686;DHT22;8456;51.136;4.210;2022-07-22T03:27:47;14.50;99.90
16686;DHT22;8456;51.136;4.210;2022-07-22T03:30:13;14.40;99.90
16686;DHT22;8456;51.136;4.210;2022-07-22T03:32:39;14.40;99.90
16686;DHT22;8456;51.136;4.210;2022-07-22T03:35:14;14.40;99.90
16686;DHT22;8456;51.136;4.210;2022-07-22T03:37:42;14.40;99.90
16686;DHT22;8456;51.136;4.210;2022-07-22T03:40:10;14.40;99.90
16686;DHT22;8456;51.136;4.210;2022-07-22T03:42:38;14.30;99.90
16686;DHT22;8456;51.136;4.210;2022-07-22T03:45:04;14.30;99.90
16686;DHT22;8456;51.136;4.210;2022-07-22T03:47:34;14.40;99.90
16686;DHT22;8456;51.136;4.210;2022-07-22T03:49:59;14.40;99.90
16686;DHT22;8456;51.136;4.210;2022-07-22T03:52:28;14.40;99.90
16686;DHT22;8456;51.136;4.210;2022-07-22T03:54:55;14.30;99.90
16686;DHT22;8456;51.136;4.210;2022-07-22T03:57:21;14.30;99.90
16686;DHT22;8456;51.136;4.210;2022-07-22T03:59:55;14.20;99.90
16686;DHT22;8456;51.136;4.210;2022-07-22T04:02:21;14.20;99.90
16686;DHT22;8456;51.136;4.210;2022-07-22T04:04:47;14.20;99.90
16686;DHT22;8456;51.136;4.210;2022-07-22T04:07:16;14.30;99.90
16686;DHT22;8456;51.136;4.210;2022-07-22T04:09:42;14.20;99.90
16686;DHT22;8456;51.136;4.210;2022-07-22T04:12:08;14.30;99.90
16686;DHT22;8456;51.136;4.210;2022-07-22T04:14:44;14.20;99.90
16686;DHT22;8456;51.136;4.210;2022-07-22T04:17:09;14.30;99.90
16686;DHT22;8456;51.136;4.210;2022-07-22T04:19:36;14.40;99.90
16686;DHT22;8456;51.136;4.210;2022-07-22T04:22:13;14.40;99.90
16686;DHT22;8456;51.136;4.210;2022-07-22T04:24:40;14.40;99.90
16686;DHT22;8456;51.136;4.210;2022-07-22T04:27:06;14.40;99.90
16686;DHT22;8456;51.136;4.210;2022-07-22T04:29:34;14.50;99.90
16686;DHT22;8456;51.136;4.210;2022-07-22T04:32:00;14.50;99.90
16686;DHT22;8456;51.136;4.210;2022-07-22T04:34:25;14.60;99.90
16686;DHT22;8456;51.136;4.210;2022-07-22T04:36:51;14.60;99.90
16686;DHT22;8456;51.136;4.210;2022-07-22T04:39:17;14.60;99.90
16686;DHT22;8456;51.136;4.210;2022-07-22T04:41:50;14.70;99.90
16686;DHT22;8456;51.136;4.210;2022-07-22T04:44:17;14.80;99.90
16686;DHT22;8456;51.136;4.210;2022-07-22T04:46:43;14.80;99.90
16686;DHT22;8456;51.136;4.210;2022-07-22T04:49:09;14.90;99.90
16686;DHT22;8456;51.136;4.210;2022-07-22T04:51:35;15.00;99.90
16686;DHT22;8456;51.136;4.210;2022-07-22T04:54:07;15.10;99.90
16686;DHT22;8456;51.136;4.210;2022-07-22T04:56:38;15.10;99.90
16686;DHT22;8456;51.136;4.210;2022-07-22T04:59:04;15.20;99.90
16686;DHT22;8456;51.136;4.210;2022-07-22T05:01:31;15.30;99.90
16686;DHT22;8456;51.136;4.210;2022-07-22T05:03:59;15.30;99.90
16686;DHT22;8456;51.136;4.210;2022-07-22T05:06:24;15.30;99.90
16686;DHT22;8456;51.136;4.210;2022-07-22T05:08:51;15.40;99.90
16686;DHT22;8456;51.136;4.210;2022-07-22T05:11:18;15.50;99.90
16686;DHT22;8456;51.136;4.210;2022-07-22T05:13:45;15.60;99.90
16686;DHT22;8456;51.136;4.210;2022-07-22T05:16:13;15.70;99.90
16686;DHT22;8456;51.136;4.210;2022-07-22T05:18:39;15.80;99.90
16686;DHT22;8456;51.136;4.210;2022-07-22T05:21:07;15.90;99.90
16686;DHT22;8456;51.136;4.210;2022-07-22T05:23:33;16.00;99.90
16686;DHT22;8456;51.136;4.210;2022-07-22T05:26:00;16.10;99.90
16686;DHT22;8456;51.136;4.210;2022-07-22T05:28:26;16.20;99.90
16686;DHT22;8456;51.136;4.210;2022-07-22T05:30:52;16.30;99.90
16686;DHT22;8456;51.136;4.210;2022-07-22T05:33:18;16.40;99.90
16686;DHT22;8456;51.136;4.210;2022-07-22T05:35:56;16.50;99.90
16686;DHT22;8456;51.136;4.210;2022-07-22T05:38:24;16.60;99.90
16686;DHT22;8456;51.136;4.210;2022-07-22T05:40:50;16.60;99.90
16686;DHT22;8456;51.136;4.210;2022-07-22T05:43:16;16.60;99.90
16686;DHT22;8456;51.136;4.210;2022-07-22T05:45:42;16.70;99.90
16686;DHT22;8456;51.136;4.210;2022-07-22T05:48:08;16.90;99.90
16686;DHT22;8456;51.136;4.210;2022-07-22T05:50:35;17.10;99.90
16686;DHT22;8456;51.136;4.210;2022-07-22T05:53:01;17.30;99.90
16686;DHT22;8456;51.136;4.210;2022-07-22T05:55:27;17.50;99.90
16686;DHT22;8456;51.136;4.210;2022-07-22T05:57:53;17.70;99.90
16686;DHT22;8456;51.136;4.210;2022-07-22T06:00:19;17.80;99.90
16686;DHT22;8456;51.136;4.210;2022-07-22T06:02:45;18.00;99.90
16686;DHT22;8456;51.136;4.210;2022-07-22T06:05:16;18.10;99.90
16686;DHT22;8456;51.136;4.210;2022-07-22T06:07:42;18.30;99.90
16686;DHT22;8456;51.136;4.210;2022-07-22T06:10:11;18.50;99.90
16686;DHT22;8456;51.136;4.210;2022-07-22T06:12:38;19.00;99.90
16686;DHT22;8456;51.136;4.210;2022-07-22T06:15:04;19.80;99.90
16686;DHT22;8456;51.136;4.210;2022-07-22T06:17:31;20.80;99.90
16686;DHT22;8456;51.136;4.210;2022-07-22T06:19:58;22.10;99.90
16686;DHT22;8456;51.136;4.210;2022-07-22T06:22:23;23.10;99.90
16686;DHT22;8456;51.136;4.210;2022-07-22T06:24:49;23.40;99.90
16686;DHT22;8456;51.136;4.210;2022-07-22T06:27:16;24.50;99.90
16686;DHT22;8456;51.136;4.210;2022-07-22T06:29:42;25.40;99.90
16686;DHT22;8456;51.136;4.210;2022-07-22T06:32:08;26.00;99.90
16686;DHT22;8456;51.136;4.210;2022-07-22T06:34:34;26.40;99.90
16686;DHT22;8456;51.136;4.210;2022-07-22T06:37:04;26.30;99.90
16686;DHT22;8456;51.136;4.210;2022-07-22T06:39:30;26.30;99.90
16686;DHT22;8456;51.136;4.210;2022-07-22T06:42:25;26.60;99.90
16686;DHT22;8456;51.136;4.210;2022-07-22T06:45:20;27.30;99.90
16686;DHT22;8456;51.136;4.210;2022-07-22T06:48:11;28.00;99.90
16686;DHT22;8456;51.136;4.210;2022-07-22T06:50:38;27.30;99.90
16686;DHT22;8456;51.136;4.210;2022-07-22T06:53:09;26.70;99.90
16686;DHT22;8456;51.136;4.210;2022-07-22T06:55:36;26.40;99.90
16686;DHT22;8456;51.136;4.210;2022-07-22T06:58:06;26.20;99.90
16686;DHT22;8456;51.136;4.210;2022-07-22T07:00:32;26.80;99.90
16686;DHT22;8456;51.136;4.210;2022-07-22T07:03:27;27.90;99.90
16686;DHT22;8456;51.136;4.210;2022-07-22T07:05:57;28.60;99.90
16686;DHT22;8456;51.136;4.210;2022-07-22T07:08:24;28.80;99.90
16686;DHT22;8456;51.136;4.210;2022-07-22T07:10:51;27.90;99.90
16686;DHT22;8456;51.136;4.210;2022-07-22T07:13:17;27.30;99.90
16686;DHT22;8456;51.136;4.210;2022-07-22T07:15:44;26.70;99.90
16686;DHT22;8456;51.136;4.210;2022-07-22T07:18:10;26.00;99.90
16686;DHT22;8456;51.136;4.210;2022-07-22T07:20:36;25.60;99.90
16686;DHT22;8456;51.136;4.210;2022-07-22T07:23:04;25.20;99.90
16686;DHT22;8456;51.136;4.210;2022-07-22T07:25:35;25.00;99.90
16686;DHT22;8456;51.136;4.210;2022-07-22T07:28:00;25.00;99.90
16686;DHT22;8456;51.136;4.210;2022-07-22T07:30:45;25.30;99.90
16686;DHT22;8456;51.136;4.210;2022-07-22T07:33:11;25.10;99.90
16686;DHT22;8456;51.136;4.210;2022-07-22T07:35:37;25.00;99.90
16686;DHT22;8456;51.136;4.210;2022-07-22T07:38:03;25.00;99.90
16686;DHT22;8456;51.136;4.210;2022-07-22T07:40:31;25.10;99.90
16686;DHT22;8456;51.136;4.210;2022-07-22T07:42:58;25.20;99.90
16686;DHT22;8456;51.136;4.210;2022-07-22T07:45:23;24.80;99.90
16686;DHT22;8456;51.136;4.210;2022-07-22T07:47:49;24.60;99.90
16686;DHT22;8456;51.136;4.210;2022-07-22T07:50:16;24.00;99.90
16686;DHT22;8456;51.136;4.210;2022-07-22T07:52:43;23.70;99.90
16686;DHT22;8456;51.136;4.210;2022-07-22T07:55:11;23.20;99.90
16686;DHT22;8456;51.136;4.210;2022-07-22T07:57:38;23.20;99.90
16686;DHT22;8456;51.136;4.210;2022-07-22T08:00:10;23.20;99.90
16686;DHT22;8456;51.136;4.210;2022-07-22T08:02:39;23.40;99.90
16686;DHT22;8456;51.136;4.210;2022-07-22T08:05:08;23.60;99.90
16686;DHT22;8456;51.136;4.210;2022-07-22T08:07:36;24.00;99.90
16686;DHT22;8456;51.136;4.210;2022-07-22T08:10:03;24.40;99.90
16686;DHT22;8456;51.136;4.210;2022-07-22T08:12:55;24.40;99.90
16686;DHT22;8456;51.136;4.210;2022-07-22T08:15:41;24.30;99.90
16686;DHT22;8456;51.136;4.210;2022-07-22T08:18:14;24.10;99.90
16686;DHT22;8456;51.136;4.210;2022-07-22T08:20:40;24.20;99.90
16686;DHT22;8456;51.136;4.210;2022-07-22T08:23:06;24.30;99.90
16686;DHT22;8456;51.136;4.210;2022-07-22T08:25:33;24.30;99.90
16686;DHT22;8456;51.136;4.210;2022-07-22T08:27:59;24.50;99.90
16686;DHT22;8456;51.136;4.210;2022-07-22T08:30:25;24.60;99.90
16686;DHT22;8456;51.136;4.210;2022-07-22T08:32:54;25.00;99.90
16686;DHT22;8456;51.136;4.210;2022-07-22T08:35:20;25.20;99.90
16686;DHT22;8456;51.136;4.210;2022-07-22T08:37:46;25.70;99.90
16686;DHT22;8456;51.136;4.210;2022-07-22T08:40:15;25.80;99.90
16686;DHT22;8456;51.136;4.210;2022-07-22T08:42:43;25.50;99.90
16686;DHT22;8456;51.136;4.210;2022-07-22T08:45:10;25.40;99.90
16686;DHT22;8456;51.136;4.210;2022-07-22T08:47:37;25.30;99.90
16686;DHT22;8456;51.136;4.210;2022-07-22T08:50:22;25.30;99.90
16686;DHT22;8456;51.136;4.210;2022-07-22T08:52:56;25.30;99.90
16686;DHT22;8456;51.136;4.210;2022-07-22T08:55:24;25.60;99.90
16686;DHT22;8456;51.136;4.210;2022-07-22T08:57:51;25.70;99.90
16686;DHT22;8456;51.136;4.210;2022-07-22T09:00:20;25.70;99.90
16686;DHT22;8456;51.136;4.210;2022-07-22T09:02:46;25.90;99.90
16686;DHT22;8456;51.136;4.210;2022-07-22T09:05:16;26.20;99.90
16686;DHT22;8456;51.136;4.210;2022-07-22T09:07:43;26.60;99.90
16686;DHT22;8456;51.136;4.210;2022-07-22T09:10:19;26.70;99.90
16686;DHT22;8456;51.136;4.210;2022-07-22T09:13:06;26.80;99.90
16686;DHT22;8456;51.136;4.210;2022-07-22T09:15:55;26.90;99.90
16686;DHT22;8456;51.136;4.210;2022-07-22T09:18:54;26.60;99.90
16686;DHT22;8456;51.136;4.210;2022-07-22T09:21:43;26.00;99.90
16686;DHT22;8456;51.136;4.210;2022-07-22T09:24:33;25.50;99.90
16686;DHT22;8456;51.136;4.210;2022-07-22T09:27:26;25.50;99.90
16686;DHT22;8456;51.136;4.210;2022-07-22T09:30:26;25.90;99.90
16686;DHT22;8456;51.136;4.210;2022-07-22T09:33:08;26.30;99.90
16686;DHT22;8456;51.136;4.210;2022-07-22T09:35:37;27.00;99.90
16686;DHT22;8456;51.136;4.210;2022-07-22T09:38:07;27.70;99.60
16686;DHT22;8456;51.136;4.210;2022-07-22T09:40:38;28.60;98.50
16686;DHT22;8456;51.136;4.210;2022-07-22T09:43:07;29.50;97.80
16686;DHT22;8456;51.136;4.210;2022-07-22T09:48:11;29.80;96.60
16686;DHT22;8456;51.136;4.210;2022-07-22T09:50:58;30.00;96.20
16686;DHT22;8456;51.136;4.210;2022-07-22T09:53:47;30.30;96.20
16686;DHT22;8456;51.136;4.210;2022-07-22T09:56:16;30.20;96.10
16686;DHT22;8456;51.136;4.210;2022-07-22T09:58:42;30.50;95.40
16686;DHT22;8456;51.136;4.210;2022-07-22T10:01:19;31.00;94.70
16686;DHT22;8456;51.136;4.210;2022-07-22T10:03:45;31.00;94.60
16686;DHT22;8456;51.136;4.210;2022-07-22T10:06:15;30.70;94.30
16686;DHT22;8456;51.136;4.210;2022-07-22T10:08:41;30.20;95.20
16686;DHT22;8456;51.136;4.210;2022-07-22T10:11:08;29.70;95.40
16686;DHT22;8456;51.136;4.210;2022-07-22T10:13:38;29.30;95.90
16686;DHT22;8456;51.136;4.210;2022-07-22T10:16:06;29.10;95.50
16686;DHT22;8456;51.136;4.210;2022-07-22T10:18:32;28.60;96.10
16686;DHT22;8456;51.136;4.210;2022-07-22T10:21:07;28.20;96.30
16686;DHT22;8456;51.136;4.210;2022-07-22T10:23:34;28.00;97.00
16686;DHT22;8456;51.136;4.210;2022-07-22T10:26:02;27.80;96.60
16686;DHT22;8456;51.136;4.210;2022-07-22T10:28:31;27.70;96.90
16686;DHT22;8456;51.136;4.210;2022-07-22T10:33:41;27.20;97.30
16686;DHT22;8456;51.136;4.210;2022-07-22T10:36:09;26.90;98.30
16686;DHT22;8456;51.136;4.210;2022-07-22T10:38:36;26.50;98.20
16686;DHT22;8456;51.136;4.210;2022-07-22T10:41:04;26.40;98.30
16686;DHT22;8456;51.136;4.210;2022-07-22T10:43:46;26.70;98.80
16686;DHT22;8456;51.136;4.210;2022-07-22T10:46:13;27.20;98.60
16686;DHT22;8456;51.136;4.210;2022-07-22T10:51:09;27.50;97.40
16686;DHT22;8456;51.136;4.210;2022-07-22T10:53:44;27.40;97.40
16686;DHT22;8456;51.136;4.210;2022-07-22T10:56:23;27.40;97.50
16686;DHT22;8456;51.136;4.210;2022-07-22T10:58:53;27.40;96.90
16686;DHT22;8456;51.136;4.210;2022-07-22T11:01:26;27.20;97.30
16686;DHT22;8456;51.136;4.210;2022-07-22T11:03:55;27.30;97.40
16686;DHT22;8456;51.136;4.210;2022-07-22T11:06:31;27.40;97.00
16686;DHT22;8456;51.136;4.210;2022-07-22T11:09:00;27.70;98.50
16686;DHT22;8456;51.136;4.210;2022-07-22T11:14:28;27.50;97.40
16686;DHT22;8456;51.136;4.210;2022-07-22T11:19:32;27.20;97.30
16686;DHT22;8456;51.136;4.210;2022-07-22T11:22:09;27.10;98.20
16686;DHT22;8456;51.136;4.210;2022-07-22T11:24:36;27.10;97.70
16686;DHT22;8456;51.136;4.210;2022-07-22T11:27:03;27.00;98.60
16686;DHT22;8456;51.136;4.210;2022-07-22T11:29:38;27.00;98.60
16686;DHT22;8456;51.136;4.210;2022-07-22T11:32:07;26.80;98.50
16686;DHT22;8456;51.136;4.210;2022-07-22T11:34:37;26.80;98.20
16686;DHT22;8456;51.136;4.210;2022-07-22T11:37:03;26.50;98.30
16686;DHT22;8456;51.136;4.210;2022-07-22T11:39:30;26.60;98.60
16686;DHT22;8456;51.136;4.210;2022-07-22T11:41:59;26.60;98.90
16686;DHT22;8456;51.136;4.210;2022-07-22T11:44:30;26.60;98.80
16686;DHT22;8456;51.136;4.210;2022-07-22T11:46:57;26.40;98.70
16686;DHT22;8456;51.136;4.210;2022-07-22T11:49:34;26.40;98.80
16686;DHT22;8456;51.136;4.210;2022-07-22T11:52:07;26.60;99.40
16686;DHT22;8456;51.136;4.210;2022-07-22T11:54:38;26.50;98.50
16686;DHT22;8456;51.136;4.210;2022-07-22T11:57:04;26.60;97.80
16686;DHT22;8456;51.136;4.210;2022-07-22T11:59:30;26.50;98.20
16686;DHT22;8456;51.136;4.210;2022-07-22T12:01:56;26.60;98.10
16686;DHT22;8456;51.136;4.210;2022-07-22T12:04:24;26.70;97.60
16686;DHT22;8456;51.136;4.210;2022-07-22T12:06:51;26.70;98.30
16686;DHT22;8456;51.136;4.210;2022-07-22T12:09:25;26.80;97.90
16686;DHT22;8456;51.136;4.210;2022-07-22T12:11:56;26.90;97.20
16686;DHT22;8456;51.136;4.210;2022-07-22T12:14:31;27.00;97.10
16686;DHT22;8456;51.136;4.210;2022-07-22T12:17:10;26.80;97.30
16686;DHT22;8456;51.136;4.210;2022-07-22T12:19:38;26.70;97.10
16686;DHT22;8456;51.136;4.210;2022-07-22T12:22:18;26.90;98.70
16686;DHT22;8456;51.136;4.210;2022-07-22T12:24:46;27.10;97.70
16686;DHT22;8456;51.136;4.210;2022-07-22T12:27:22;27.10;97.50
16686;DHT22;8456;51.136;4.210;2022-07-22T12:29:48;27.20;97.90
16686;DHT22;8456;51.136;4.210;2022-07-22T12:38:04;26.90;97.30
16686;DHT22;8456;51.136;4.210;2022-07-22T12:40:08;27.00;97.20
16686;DHT22;8456;51.136;4.210;2022-07-22T12:42:36;27.00;97.30
16686;DHT22;8456;51.136;4.210;2022-07-22T12:45:17;27.10;97.30
16686;DHT22;8456;51.136;4.210;2022-07-22T12:47:51;27.10;97.20
16686;DHT22;8456;51.136;4.210;2022-07-22T12:50:29;27.10;96.60
16686;DHT22;8456;51.136;4.210;2022-07-22T12:53:11;26.80;96.80
16686;DHT22;8456;51.136;4.210;2022-07-22T12:55:40;26.90;97.60
16686;DHT22;8456;51.136;4.210;2022-07-22T12:58:07;26.80;97.40
16686;DHT22;8456;51.136;4.210;2022-07-22T13:00:39;26.70;97.80
16686;DHT22;8456;51.136;4.210;2022-07-22T13:03:05;26.60;97.60
16686;DHT22;8456;51.136;4.210;2022-07-22T13:05:31;26.50;97.70
16686;DHT22;8456;51.136;4.210;2022-07-22T13:07:56;26.40;98.50
16686;DHT22;8456;51.136;4.210;2022-07-22T13:10:24;26.50;97.80
16686;DHT22;8456;51.136;4.210;2022-07-22T13:12:51;26.80;97.80
16686;DHT22;8456;51.136;4.210;2022-07-22T13:15:19;26.90;98.40
16686;DHT22;8456;51.136;4.210;2022-07-22T13:17:45;26.80;97.40
16686;DHT22;8456;51.136;4.210;2022-07-22T13:20:13;26.70;98.10
16686;DHT22;8456;51.136;4.210;2022-07-22T13:22:39;26.50;97.80
16686;DHT22;8456;51.136;4.210;2022-07-22T13:25:06;26.50;99.10
16686;DHT22;8456;51.136;4.210;2022-07-22T13:27:32;26.60;98.00
16686;DHT22;8456;51.136;4.210;2022-07-22T13:29:58;26.70;98.50
16686;DHT22;8456;51.136;4.210;2022-07-22T13:32:23;26.70;98.20
16686;DHT22;8456;51.136;4.210;2022-07-22T13:34:49;26.70;98.10
16686;DHT22;8456;51.136;4.210;2022-07-22T13:37:15;26.90;98.40
16686;DHT22;8456;51.136;4.210;2022-07-22T13:39:41;26.90;98.80
16686;DHT22;8456;51.136;4.210;2022-07-22T13:42:08;27.00;98.10
16686;DHT22;8456;51.136;4.210;2022-07-22T13:44:34;27.00;97.90
16686;DHT22;8456;51.136;4.210;2022-07-22T13:47:01;27.00;98.60
16686;DHT22;8456;51.136;4.210;2022-07-22T13:49:27;27.00;98.40
16686;DHT22;8456;51.136;4.210;2022-07-22T13:51:52;26.60;98.30
16686;DHT22;8456;51.136;4.210;2022-07-22T13:54:19;26.30;99.10
16686;DHT22;8456;51.136;4.210;2022-07-22T13:56:45;26.50;99.30
16686;DHT22;8456;51.136;4.210;2022-07-22T13:59:14;26.60;99.80
16686;DHT22;8456;51.136;4.210;2022-07-22T14:01:40;26.70;98.90
16686;DHT22;8456;51.136;4.210;2022-07-22T14:04:06;26.70;98.20
16686;DHT22;8456;51.136;4.210;2022-07-22T14:06:32;26.80;98.50
16686;DHT22;8456;51.136;4.210;2022-07-22T14:08:58;26.80;98.30
16686;DHT22;8456;51.136;4.210;2022-07-22T14:11:24;26.90;98.90
16686;DHT22;8456;51.136;4.210;2022-07-22T14:13:50;27.00;99.20
16686;DHT22;8456;51.136;4.210;2022-07-22T14:16:16;26.90;98.20
16686;DHT22;8456;51.136;4.210;2022-07-22T14:19:11;26.90;98.80
16686;DHT22;8456;51.136;4.210;2022-07-22T14:21:40;26.70;98.40
16686;DHT22;8456;51.136;4.210;2022-07-22T14:24:07;26.90;99.20
16686;DHT22;8456;51.136;4.210;2022-07-22T14:26:34;27.00;98.90
16686;DHT22;8456;51.136;4.210;2022-07-22T14:29:00;26.90;98.90
16686;DHT22;8456;51.136;4.210;2022-07-22T14:31:26;26.90;98.90
16686;DHT22;8456;51.136;4.210;2022-07-22T14:33:53;27.00;99.00
16686;DHT22;8456;51.136;4.210;2022-07-22T14:36:19;26.90;98.90
16686;DHT22;8456;51.136;4.210;2022-07-22T14:38:45;26.80;98.10
16686;DHT22;8456;51.136;4.210;2022-07-22T14:41:10;26.80;99.10
16686;DHT22;8456;51.136;4.210;2022-07-22T14:43:37;26.50;98.90
16686;DHT22;8456;51.136;4.210;2022-07-22T14:46:03;26.20;98.80
16686;DHT22;8456;51.136;4.210;2022-07-22T14:48:30;25.90;99.70
16686;DHT22;8456;51.136;4.210;2022-07-22T14:50:57;25.80;99.90
16686;DHT22;8456;51.136;4.210;2022-07-22T14:53:23;25.70;99.90
16686;DHT22;8456;51.136;4.210;2022-07-22T14:55:49;25.60;99.90
16686;DHT22;8456;51.136;4.210;2022-07-22T14:58:15;25.50;99.90
16686;DHT22;8456;51.136;4.210;2022-07-22T15:00:41;25.60;99.90
16686;DHT22;8456;51.136;4.210;2022-07-22T15:03:07;25.70;99.90
16686;DHT22;8456;51.136;4.210;2022-07-22T15:05:32;25.90;99.90
16686;DHT22;8456;51.136;4.210;2022-07-22T15:07:58;26.00;99.90
16686;DHT22;8456;51.136;4.210;2022-07-22T15:10:24;26.00;99.90
16686;DHT22;8456;51.136;4.210;2022-07-22T15:12:50;26.00;99.90
16686;DHT22;8456;51.136;4.210;2022-07-22T15:15:15;25.90;99.90
16686;DHT22;8456;51.136;4.210;2022-07-22T15:17:41;25.90;99.90
16686;DHT22;8456;51.136;4.210;2022-07-22T15:20:09;25.80;99.90
16686;DHT22;8456;51.136;4.210;2022-07-22T15:22:36;25.80;99.90
16686;DHT22;8456;51.136;4.210;2022-07-22T15:25:02;25.90;99.90
16686;DHT22;8456;51.136;4.210;2022-07-22T15:27:28;25.90;99.90
16686;DHT22;8456;51.136;4.210;2022-07-22T15:29:53;25.90;99.90
16686;DHT22;8456;51.136;4.210;2022-07-22T15:32:19;25.90;99.90
16686;DHT22;8456;51.136;4.210;2022-07-22T15:34:45;25.80;99.90
16686;DHT22;8456;51.136;4.210;2022-07-22T15:37:11;25.70;99.90
16686;DHT22;8456;51.136;4.210;2022-07-22T15:39:37;25.70;99.90
16686;DHT22;8456;51.136;4.210;2022-07-22T15:42:03;25.60;99.90
16686;DHT22;8456;51.136;4.210;2022-07-22T15:44:29;25.60;99.90
16686;DHT22;8456;51.136;4.210;2022-07-22T15:46:55;25.40;99.90
16686;DHT22;8456;51.136;4.210;2022-07-22T15:49:22;25.20;99.90
16686;DHT22;8456;51.136;4.210;2022-07-22T15:51:48;25.00;99.90
16686;DHT22;8456;51.136;4.210;2022-07-22T15:54:14;24.90;99.90
16686;DHT22;8456;51.136;4.210;2022-07-22T15:56:40;24.80;99.90
16686;DHT22;8456;51.136;4.210;2022-07-22T15:59:06;24.70;99.90
16686;DHT22;8456;51.136;4.210;2022-07-22T16:01:51;24.70;99.90
16686;DHT22;8456;51.136;4.210;2022-07-22T16:04:18;24.60;99.90
16686;DHT22;8456;51.136;4.210;2022-07-22T16:06:44;24.60;99.90
16686;DHT22;8456;51.136;4.210;2022-07-22T16:09:10;24.60;99.90
16686;DHT22;8456;51.136;4.210;2022-07-22T16:11:36;24.50;99.90
16686;DHT22;8456;51.136;4.210;2022-07-22T16:14:03;24.50;99.90